Time;durP1;ratioP1;P1;durP2;ratioP2;P2;SDS_P1;SDS_P2;PMS_P1;PMS_P2;Temp;Humidity;BMP_temperature;BMP_pressure;BME280_temperature;BME280_humidity;BME280_pressure;Samples;Min_cycle;Max_cycle;Signal;HPM_P1;HPM_P2
2021/06/30 00:02:14;;;;;;;6.83;5.15;;;;;;;25.84;51.62;99492.48;1762502;78;20947;-84
2021/06/30 00:04:40;;;;;;;8.55;5.40;;;;;;;25.78;52.06;99493.84;1754145;80;21082;-84
2021/06/30 00:07:06;;;;;;;11.65;5.95;;;;;;;25.83;51.91;99492.23;1750153;80;20881;-84
2021/06/30 00:09:31;;;;;;;10.30;5.83;;;;;;;25.73;52.14;99489.81;1771381;78;21068;-83
2021/06/30 00:11:57;;;;;;;8.08;5.75;;;;;;;25.67;52.31;99490.91;1769532;77;21021;-84
2021/06/30 00:14:23;;;;;;;12.80;6.12;;;;;;;25.58;52.79;99496.59;1760574;80;21507;-84
2021/06/30 00:16:49;;;;;;;9.43;5.97;;;;;;;25.63;52.70;99493.87;1766199;81;21916;-84
2021/06/30 00:19:15;;;;;;;7.37;5.60;;;;;;;25.68;52.34;99487.09;1760233;80;21546;-84
2021/06/30 00:21:44;;;;;;;8.15;5.78;;;;;;;25.67;52.64;99490.91;1766485;80;20881;-84
2021/06/30 00:24:09;;;;;;;9.65;6.08;;;;;;;25.70;52.76;99492.23;1773529;78;21069;-85
2021/06/30 00:26:36;;;;;;;9.40;6.35;;;;;;;25.69;52.62;99497.39;1784421;78;21311;-86
2021/06/30 00:29:04;;;;;;;8.55;6.17;;;;;;;25.61;53.22;99503.61;1776568;78;21320;-85
2021/06/30 00:31:30;;;;;;;12.53;6.55;;;;;;;25.67;53.00;99501.72;1771725;78;20951;-85
2021/06/30 00:33:55;;;;;;;9.80;6.45;;;;;;;25.68;53.04;99503.32;1775083;78;20868;-87
2021/06/30 00:36:21;;;;;;;9.08;6.30;;;;;;;25.69;52.75;99507.66;1775894;78;21243;-89
2021/06/30 00:38:47;;;;;;;9.90;6.50;;;;;;;25.70;52.47;99499.82;1773105;77;20899;-85
2021/06/30 00:41:13;;;;;;;9.30;6.35;;;;;;;25.65;52.71;99497.10;1765692;81;20955;-85
2021/06/30 00:43:38;;;;;;;8.70;6.47;;;;;;;25.58;53.04;99491.18;1766219;80;20888;-85
2021/06/30 00:46:04;;;;;;;10.63;6.30;;;;;;;25.54;53.11;99490.09;1764312;80;20912;-85
2021/06/30 00:48:30;;;;;;;11.97;6.03;;;;;;;25.50;53.02;99487.68;1750793;80;20967;-85
2021/06/30 00:50:56;;;;;;;9.65;6.00;;;;;;;25.45;53.14;99483.09;1750771;81;20978;-84
2021/06/30 00:53:21;;;;;;;7.90;5.47;;;;;;;25.37;53.34;99481.73;1760772;80;21202;-83
2021/06/30 00:55:50;;;;;;;9.48;5.78;;;;;;;25.34;53.39;99474.17;1759295;80;20947;-83
2021/06/30 00:58:16;;;;;;;8.93;5.95;;;;;;;25.35;53.08;99467.66;1764231;80;21271;-84
2021/06/30 01:00:42;;;;;;;9.43;5.72;;;;;;;25.25;53.45;99467.66;1756022;80;20947;-84
2021/06/30 01:03:09;;;;;;;10.98;6.10;;;;;;;25.21;53.58;99464.66;1792385;77;21050;-84
2021/06/30 01:05:35;;;;;;;10.00;6.47;;;;;;;25.24;53.45;99457.91;1812551;77;21057;-85
2021/06/30 01:08:04;;;;;;;9.80;6.50;;;;;;;25.14;54.09;99455.20;1816095;77;20884;-85
2021/06/30 01:10:29;;;;;;;7.58;6.03;;;;;;;25.08;54.45;99452.50;1813884;77;21114;-85
2021/06/30 01:12:55;;;;;;;11.33;6.25;;;;;;;25.15;54.32;99452.78;1817200;77;20872;-85
2021/06/30 01:15:21;;;;;;;8.58;6.70;;;;;;;25.17;54.41;99446.55;1824352;77;20939;-84
2021/06/30 01:17:47;;;;;;;9.68;6.42;;;;;;;25.15;54.89;99441.42;1821485;77;21679;-83
2021/06/30 01:20:13;;;;;;;10.75;6.78;;;;;;;25.09;55.05;99440.62;1804591;77;21742;-83
2021/06/30 01:22:44;;;;;;;11.35;6.97;;;;;;;24.97;55.05;99431.98;1764400;80;21943;-83
2021/06/30 01:25:11;;;;;;;9.20;6.70;;;;;;;24.99;55.24;99433.06;1763557;80;21083;-84
2021/06/30 01:27:36;;;;;;;8.97;6.87;;;;;;;24.99;55.22;99431.16;1749551;79;21120;-83
2021/06/30 01:30:06;;;;;;;10.13;6.85;;;;;;;24.97;55.66;99423.88;1770416;78;21422;-84
2021/06/30 01:32:31;;;;;;;13.65;7.47;;;;;;;25.06;55.44;99424.13;1778774;78;20986;-83
2021/06/30 01:34:57;;;;;;;12.85;7.30;;;;;;;25.05;55.84;99423.88;1816303;77;20876;-84
2021/06/30 01:37:23;;;;;;;9.40;6.42;;;;;;;25.09;55.99;99428.47;1819798;77;20868;-84
2021/06/30 01:39:49;;;;;;;10.20;6.35;;;;;;;25.05;56.12;99431.44;1826412;77;20864;-85
2021/06/30 01:42:14;;;;;;;11.88;6.58;;;;;;;25.03;55.97;99432.77;1814156;77;21928;-85
2021/06/30 01:44:40;;;;;;;11.30;6.83;;;;;;;25.11;55.49;99424.67;1809929;77;21139;-84
2021/06/30 01:47:06;;;;;;;10.68;7.30;;;;;;;25.03;55.57;99417.39;1800648;76;20970;-85
2021/06/30 01:49:32;;;;;;;10.53;7.22;;;;;;;25.05;55.31;99421.98;1833480;77;20860;-85
2021/06/30 01:51:57;;;;;;;9.60;7.25;;;;;;;25.05;55.30;99426.03;1822185;77;20825;-85
2021/06/30 01:54:23;;;;;;;11.08;7.10;;;;;;;24.99;55.51;99420.35;1821468;77;21627;-85
2021/06/30 01:56:49;;;;;;;10.40;6.65;;;;;;;24.96;55.32;99419.54;1755277;80;20959;-85
2021/06/30 01:59:15;;;;;;;9.67;6.87;;;;;;;24.92;55.35;99421.15;1757933;81;29016;-85
2021/06/30 02:01:42;;;;;;;9.33;6.87;;;;;;;24.86;55.32;99423.05;1772593;77;20993;-85
2021/06/30 02:04:08;;;;;;;10.25;6.72;;;;;;;24.88;55.28;99428.19;1752307;79;21075;-84
2021/06/30 02:06:40;;;;;;;12.60;7.22;;;;;;;24.94;55.04;99419.02;1756285;81;21000;-84
2021/06/30 02:09:07;;;;;;;10.80;7.12;;;;;;;24.84;54.94;99398.19;1757417;81;21122;-85
2021/06/30 02:11:34;;;;;;;12.70;7.20;;;;;;;24.91;54.97;99406.84;1764573;78;21100;-85
2021/06/30 02:13:59;;;;;;;12.40;7.70;;;;;;;24.84;54.91;99403.59;1765179;80;21131;-85
2021/06/30 02:16:25;;;;;;;10.95;6.87;;;;;;;24.79;55.13;99400.09;1761121;79;20894;-84
2021/06/30 02:18:52;;;;;;;11.12;7.17;;;;;;;24.75;55.35;99396.30;1754549;78;21145;-84
2021/06/30 02:21:18;;;;;;;10.28;6.58;;;;;;;24.71;55.27;99392.78;1763688;78;21014;-84
2021/06/30 02:23:43;;;;;;;10.35;6.80;;;;;;;24.63;55.33;99400.07;1806115;78;21108;-85
2021/06/30 02:26:09;;;;;;;11.03;6.87;;;;;;;24.62;55.34;99403.84;1815322;77;20997;-85
2021/06/30 02:28:35;;;;;;;12.47;7.42;;;;;;;24.46;55.88;99399.48;1814312;76;20892;-85
2021/06/30 02:31:01;;;;;;;12.00;7.00;;;;;;;24.42;55.95;99401.08;1808302;78;21139;-85
2021/06/30 02:33:27;;;;;;;11.80;7.45;;;;;;;24.44;55.96;99405.66;1774327;78;20946;-85
2021/06/30 02:35:54;;;;;;;14.67;7.37;;;;;;;24.59;55.64;99399.52;1755658;78;21031;-85
2021/06/30 02:38:19;;;;;;;12.50;7.50;;;;;;;24.67;55.29;99398.47;1758883;81;21016;-85
2021/06/30 02:40:45;;;;;;;11.55;6.83;;;;;;;24.73;55.01;99397.40;1765645;80;20912;-86
2021/06/30 02:43:11;;;;;;;10.05;6.97;;;;;;;24.77;54.91;99393.61;1754570;81;20987;-86
2021/06/30 02:45:37;;;;;;;11.00;6.75;;;;;;;24.77;54.85;99399.56;1766864;80;21462;-85
2021/06/30 02:48:03;;;;;;;10.98;7.08;;;;;;;24.70;54.97;99401.98;1767001;80;20920;-85
2021/06/30 02:50:28;;;;;;;9.50;6.67;;;;;;;24.78;54.74;99401.16;1751046;80;24350;-85
2021/06/30 02:52:54;;;;;;;9.98;6.60;;;;;;;24.83;54.20;99407.39;1766765;80;21022;-85
2021/06/30 02:55:20;;;;;;;11.30;6.40;;;;;;;24.83;54.20;99407.39;1770424;79;21076;-85
2021/06/30 02:57:47;;;;;;;9.50;6.67;;;;;;;24.90;53.82;99405.77;1774135;78;20857;-85
2021/06/30 03:00:17;;;;;;;8.73;6.10;;;;;;;25.00;53.46;99406.30;1766303;79;21597;-84
2021/06/30 03:02:44;;;;;;;9.05;6.58;;;;;;;25.10;53.08;99404.95;1760724;79;21276;-87
2021/06/30 03:05:10;;;;;;;10.60;6.72;;;;;;;25.04;53.17;99410.89;1755849;79;21363;-86
2021/06/30 03:07:36;;;;;;;8.78;6.20;;;;;;;25.04;53.08;99404.13;1769228;79;21095;-86
2021/06/30 03:10:07;;;;;;;8.90;5.97;;;;;;;25.14;52.83;99414.67;1812985;76;21094;-86
2021/06/30 03:12:34;;;;;;;8.98;6.20;;;;;;;25.09;52.81;99410.91;1818996;78;21043;-86
2021/06/30 03:15:00;;;;;;;9.60;6.65;;;;;;;25.15;52.75;99410.90;1797828;78;21049;-86
2021/06/30 03:17:25;;;;;;;8.83;6.42;;;;;;;25.14;52.50;99409.27;1776516;78;20962;-86
2021/06/30 03:19:51;;;;;;;9.70;6.67;;;;;;;25.17;52.36;99407.37;1776510;78;21135;-87
2021/06/30 03:22:17;;;;;;;14.23;6.92;;;;;;;25.17;52.44;99406.86;1812943;76;20855;-86
2021/06/30 03:24:43;;;;;;;12.37;6.60;;;;;;;25.19;52.37;99413.34;1817603;78;20875;-87
2021/06/30 03:27:20;;;;;;;8.73;6.55;;;;;;;25.18;52.38;99421.16;1753492;79;20865;-87
2021/06/30 03:29:46;;;;;;;9.18;6.67;;;;;;;25.24;52.39;99432.24;1762055;80;21119;-88
2021/06/30 03:32:12;;;;;;;8.00;6.28;;;;;;;25.18;52.65;99435.48;1763957;80;21227;-84
2021/06/30 03:34:38;;;;;;;11.60;7.15;;;;;;;25.23;52.76;99440.06;1747790;79;20854;-85
2021/06/30 03:37:04;;;;;;;9.23;6.80;;;;;;;25.09;53.00;99459.54;1748048;79;20981;-86
2021/06/30 03:39:30;;;;;;;10.18;7.15;;;;;;;25.08;53.34;99491.68;1770307;80;21155;-86
2021/06/30 03:41:55;;;;;;;9.78;7.20;;;;;;;24.64;54.53;99539.39;1758488;79;20906;-86
2021/06/30 03:44:21;;;;;;;8.68;6.10;;;;;;;24.68;54.26;99504.02;1765285;79;21430;-86
2021/06/30 03:46:47;;;;;;;9.10;6.20;;;;;;;24.73;54.18;99509.45;1756151;79;20866;-87
2021/06/30 03:49:13;;;;;;;11.55;6.50;;;;;;;24.72;54.40;99529.97;1776780;80;20959;-86
2021/06/30 03:51:39;;;;;;;10.30;6.00;;;;;;;24.67;54.60;99544.27;1768004;79;20863;-86
2021/06/30 03:54:08;;;;;;;7.05;5.78;;;;;;;24.73;54.49;99525.66;1761593;78;20885;-86
2021/06/30 03:56:32;;;;;;;9.90;5.90;;;;;;;24.68;54.49;99508.06;1741811;78;21755;-87
2021/06/30 03:58:58;;;;;;;10.18;6.33;;;;;;;24.75;54.43;99516.45;1732428;81;21480;-86
2021/06/30 04:01:26;;;;;;;8.80;5.90;;;;;;;24.73;54.54;99518.91;1735024;78;21134;-84
2021/06/30 04:04:01;;;;;;;12.63;5.95;;;;;;;24.75;54.57;99514.59;1763091;78;21066;-84
2021/06/30 04:06:24;;;;;;;11.65;6.30;;;;;;;24.73;54.63;99521.61;1747495;79;21104;-86
2021/06/30 04:08:50;;;;;;;9.88;6.05;;;;;;;24.71;55.02;99526.44;1747536;79;21219;-86
2021/06/30 04:11:18;;;;;;;10.35;5.70;;;;;;;24.78;55.30;99523.51;1760953;79;20905;-85
2021/06/30 04:13:45;;;;;;;7.92;6.12;;;;;;;24.76;55.41;99514.04;1777858;78;21004;-84
2021/06/30 04:16:11;;;;;;;10.58;5.75;;;;;;;24.64;55.90;99515.09;1766525;79;21124;-84
2021/06/30 04:18:37;;;;;;;11.15;6.22;;;;;;;24.60;56.18;99508.59;1769971;79;20880;-84
2021/06/30 04:21:04;;;;;;;10.53;6.23;;;;;;;24.71;56.12;99499.44;1762310;79;21758;-84
2021/06/30 04:23:30;;;;;;;8.60;6.05;;;;;;;24.54;57.18;99496.12;1766165;79;20974;-85
2021/06/30 04:25:56;;;;;;;11.97;5.92;;;;;;;24.44;57.73;99492.02;1772276;79;21345;-84
2021/06/30 04:28:22;;;;;;;8.68;5.75;;;;;;;24.47;57.66;99485.58;1761207;79;21277;-85
2021/06/30 04:30:49;;;;;;;10.20;5.85;;;;;;;24.58;57.55;99483.76;1752154;78;21420;-85
2021/06/30 04:33:14;;;;;;;9.68;6.00;;;;;;;24.66;57.49;99476.48;1763388;80;21847;-84
2021/06/30 04:35:40;;;;;;;9.98;5.65;;;;;;;24.66;57.97;99475.13;1760854;80;20892;-84
2021/06/30 04:38:06;;;;;;;10.70;5.72;;;;;;;24.90;57.28;99478.14;1768216;78;20897;-85
2021/06/30 04:40:32;;;;;;;9.10;5.95;;;;;;;24.97;57.46;99468.44;1777364;78;20866;-85
2021/06/30 04:42:57;;;;;;;10.45;6.30;;;;;;;24.93;57.68;99474.09;1784025;80;20880;-85
2021/06/30 04:45:23;;;;;;;8.80;6.03;;;;;;;24.99;58.00;99475.73;1784707;80;22035;-85
2021/06/30 04:47:49;;;;;;;10.38;6.30;;;;;;;25.09;57.82;99471.70;1780154;78;20912;-86
2021/06/30 04:50:15;;;;;;;13.58;6.10;;;;;;;25.16;58.15;99469.27;1772058;78;20856;-85
2021/06/30 04:52:40;;;;;;;13.38;5.90;;;;;;;25.08;58.56;99471.42;1769565;78;20856;-86
2021/06/30 04:55:07;;;;;;;9.20;6.05;;;;;;;25.15;58.12;99470.34;1757207;78;20958;-86
2021/06/30 04:57:34;;;;;;;9.43;5.87;;;;;;;25.11;58.56;99469.25;1751028;79;21324;-84
2021/06/30 05:00:00;;;;;;;8.80;5.90;;;;;;;25.07;59.13;99470.34;1767592;79;28262;-83
2021/06/30 05:02:25;;;;;;;9.20;6.37;;;;;;;25.15;59.41;99455.48;1770171;79;21096;-84
2021/06/30 05:04:51;;;;;;;11.20;6.25;;;;;;;25.12;60.35;99458.17;1779496;79;21369;-84
2021/06/30 05:07:17;;;;;;;13.18;7.08;;;;;;;25.20;60.66;99452.77;1764414;78;21109;-84
2021/06/30 05:09:43;;;;;;;10.30;6.75;;;;;;;25.15;61.50;99441.42;1770115;79;21839;-85
2021/06/30 05:12:09;;;;;;;10.63;6.33;;;;;;;25.12;61.71;99437.11;1756825;79;21017;-85
2021/06/30 05:14:34;;;;;;;9.95;6.40;;;;;;;25.14;61.33;99441.69;1759500;79;21194;-83
2021/06/30 05:17:00;;;;;;;11.57;6.30;;;;;;;25.04;61.68;99428.45;1765660;79;20938;-83
2021/06/30 05:19:26;;;;;;;10.20;6.90;;;;;;;25.08;61.45;99424.69;1763294;79;20977;-86
2021/06/30 05:21:52;;;;;;;8.90;6.40;;;;;;;25.01;61.60;99416.83;1758048;79;21205;-85
2021/06/30 05:24:17;;;;;;;9.10;6.20;;;;;;;25.00;61.90;99411.70;1761002;79;20892;-85
2021/06/30 05:26:43;;;;;;;9.18;6.87;;;;;;;24.94;62.43;99400.10;1759785;79;20922;-86
2021/06/30 05:29:09;;;;;;;8.60;6.28;;;;;;;24.90;62.85;99390.91;1764586;79;20884;-84
2021/06/30 05:31:35;;;;;;;9.73;6.47;;;;;;;24.86;63.00;99387.11;1751983;79;20987;-84
2021/06/30 05:34:00;;;;;;;10.98;7.05;;;;;;;24.97;63.02;99373.07;1767004;80;21031;-83
2021/06/30 05:36:26;;;;;;;9.65;6.85;;;;;;;24.85;64.01;99374.71;1761376;79;20964;-84
2021/06/30 05:38:52;;;;;;;9.95;6.72;;;;;;;24.89;64.20;99367.15;1780475;79;20982;-85
2021/06/30 05:41:18;;;;;;;11.55;7.37;;;;;;;24.82;64.80;99359.05;1752716;79;20878;-84
2021/06/30 05:43:43;;;;;;;11.50;7.03;;;;;;;24.86;64.51;99358.76;1767336;79;20889;-84
2021/06/30 05:46:09;;;;;;;11.75;7.50;;;;;;;24.97;64.53;99354.99;1760220;79;21969;-87
2021/06/30 05:48:35;;;;;;;14.93;7.28;;;;;;;24.93;65.33;99355.25;1750146;79;20898;-84
2021/06/30 05:51:01;;;;;;;9.85;7.00;;;;;;;24.91;65.70;99357.43;1771138;79;21175;-84
2021/06/30 05:53:26;;;;;;;11.22;6.70;;;;;;;24.94;66.01;99353.36;1774398;79;20851;-85
2021/06/30 05:55:52;;;;;;;14.13;7.78;;;;;;;24.97;66.17;99333.38;1754652;79;21118;-85
2021/06/30 05:58:18;;;;;;;11.57;7.85;;;;;;;24.85;66.65;99327.45;1760966;79;21054;-83
2021/06/30 06:00:44;;;;;;;11.30;8.40;;;;;;;24.86;66.41;99320.43;1768611;79;21061;-85
2021/06/30 06:03:10;;;;;;;12.18;8.65;;;;;;;24.77;66.80;99315.85;1762530;79;25227;-86
2021/06/30 06:05:36;;;;;;;12.23;8.30;;;;;;;24.75;67.53;99297.74;1778037;79;21132;-86
2021/06/30 06:08:03;;;;;;;12.15;7.72;;;;;;;24.66;67.72;99287.49;1757017;79;21112;-86
2021/06/30 06:10:29;;;;;;;11.70;8.48;;;;;;;24.40;68.71;99295.30;1755035;79;21877;-87
2021/06/30 06:12:54;;;;;;;11.45;7.75;;;;;;;24.42;68.42;99287.73;1761681;79;20923;-86
2021/06/30 06:15:20;;;;;;;12.88;8.60;;;;;;;24.55;68.25;99290.70;1763069;77;20931;-87
2021/06/30 06:17:46;;;;;;;13.48;8.65;;;;;;;24.63;68.41;99283.98;1774215;80;20919;-86
2021/06/30 06:20:12;;;;;;;12.82;8.55;;;;;;;24.60;68.03;99266.98;1813656;78;21023;-87
2021/06/30 06:22:38;;;;;;;14.95;8.88;;;;;;;24.75;67.56;99278.84;1796216;76;21096;-85
2021/06/30 06:25:06;;;;;;;15.05;8.63;;;;;;;24.76;67.93;99276.42;1751439;79;20847;-84
2021/06/30 06:27:32;;;;;;;13.90;8.83;;;;;;;24.83;67.67;99270.22;1770909;77;21073;-84
2021/06/30 06:29:59;;;;;;;15.32;8.95;;;;;;;24.60;68.70;99260.23;1752610;79;20904;-84
2021/06/30 06:32:24;;;;;;;13.87;9.10;;;;;;;24.70;68.39;99259.41;1759624;79;21014;-84
2021/06/30 06:34:51;;;;;;;14.55;9.70;;;;;;;24.85;67.78;99263.98;1768409;79;21066;-84
2021/06/30 06:37:17;;;;;;;13.30;9.53;;;;;;;24.77;68.25;99267.25;1774329;79;21102;-84
2021/06/30 06:39:45;;;;;;;15.05;9.80;;;;;;;24.77;68.26;99261.84;1767147;79;20929;-84
2021/06/30 06:42:12;;;;;;;17.05;9.93;;;;;;;24.72;68.79;99263.46;1757691;77;21032;-84
2021/06/30 06:44:39;;;;;;;14.13;10.10;;;;;;;24.64;69.75;99257.79;1762695;79;21546;-86
2021/06/30 06:47:07;;;;;;;12.35;9.10;;;;;;;24.67;69.10;99260.78;1750388;79;21122;-85
2021/06/30 06:49:33;;;;;;;17.00;9.88;;;;;;;24.64;69.50;99261.32;1747688;79;21756;-84
2021/06/30 06:52:00;;;;;;;15.68;10.00;;;;;;;24.59;69.87;99247.80;1778123;76;20934;-85
2021/06/30 06:54:26;;;;;;;15.90;10.18;;;;;;;24.71;69.56;99255.08;1812475;78;21679;-85
2021/06/30 06:56:52;;;;;;;13.72;9.58;;;;;;;24.90;69.27;99257.22;1811471;78;21240;-85
2021/06/30 06:59:18;;;;;;;13.20;9.13;;;;;;;24.90;69.61;99265.32;1814962;78;22046;-85
2021/06/30 07:01:43;;;;;;;19.42;10.58;;;;;;;25.03;69.23;99270.69;1791677;78;20943;-85
2021/06/30 07:04:09;;;;;;;18.87;9.68;;;;;;;25.09;69.05;99296.09;1774471;80;20954;-84
2021/06/30 07:06:35;;;;;;;16.12;9.65;;;;;;;25.14;68.92;99311.48;1752337;80;20904;-87
2021/06/30 07:09:01;;;;;;;12.78;9.13;;;;;;;25.20;69.17;99312.27;1763377;80;20884;-88
2021/06/30 07:11:26;;;;;;;15.43;9.43;;;;;;;25.35;68.62;99308.75;1758519;80;21136;-88
2021/06/30 07:13:52;;;;;;;12.73;8.73;;;;;;;25.30;68.89;99313.63;1756335;80;20975;-88
2021/06/30 07:16:18;;;;;;;13.43;8.35;;;;;;;25.38;68.41;99318.47;1755592;80;20971;-88
2021/06/30 07:18:44;;;;;;;18.07;9.23;;;;;;;25.59;68.42;99341.38;1766228;80;21304;-87
2021/06/30 07:21:10;;;;;;;12.05;9.43;;;;;;;25.57;68.68;99344.38;1760108;80;21056;-83
2021/06/30 07:23:36;;;;;;;13.17;9.57;;;;;;;25.32;69.40;99351.98;1763760;80;21157;-85
2021/06/30 07:26:02;;;;;;;14.78;8.90;;;;;;;25.69;68.88;99345.41;1751827;79;21469;-87
2021/06/30 07:28:28;;;;;;;13.08;9.08;;;;;;;25.80;68.82;99353.73;1768876;80;20971;-85
2021/06/30 07:30:54;;;;;;;13.55;8.75;;;;;;;26.04;67.58;99350.95;1759758;80;20971;-85
2021/06/30 07:33:20;;;;;;;13.00;8.70;;;;;;;26.12;67.48;99347.13;1751378;79;21066;-85
2021/06/30 07:35:45;;;;;;;14.03;7.90;;;;;;;26.11;66.86;99365.80;1754535;79;20968;-83
2021/06/30 07:38:11;;;;;;;11.57;8.30;;;;;;;26.20;66.47;99358.47;1760435;80;20884;-84
2021/06/30 07:40:37;;;;;;;18.48;9.43;;;;;;;25.99;67.50;99370.73;1774493;80;20988;-84
2021/06/30 07:43:03;;;;;;;11.65;8.45;;;;;;;25.43;68.82;99361.72;1781483;80;20997;-84
2021/06/30 07:45:29;;;;;;;11.53;8.33;;;;;;;25.70;68.20;99358.37;1780607;78;24621;-85
2021/06/30 07:47:55;;;;;;;11.53;8.10;;;;;;;25.66;68.37;99374.34;1767232;80;25768;-84
2021/06/30 07:50:21;;;;;;;10.08;7.25;;;;;;;25.35;68.76;99374.42;1764669;80;21057;-85
2021/06/30 07:52:48;;;;;;;15.30;8.47;;;;;;;25.57;68.25;99380.05;1766784;80;20920;-86
2021/06/30 07:55:15;;;;;;;11.83;8.15;;;;;;;25.46;68.75;99373.86;1754814;80;21031;-86
2021/06/30 07:57:41;;;;;;;10.15;7.55;;;;;;;25.65;68.43;99384.88;1759482;80;21003;-84
2021/06/30 08:00:08;;;;;;;11.43;6.95;;;;;;;25.57;68.83;99388.98;1766843;80;21136;-86
2021/06/30 08:02:35;;;;;;;9.90;7.00;;;;;;;25.56;68.07;99386.01;1762074;81;21035;-86
2021/06/30 08:05:02;;;;;;;9.63;6.83;;;;;;;25.62;67.44;99390.84;1771751;78;21278;-87
2021/06/30 08:07:27;;;;;;;10.53;6.43;;;;;;;25.68;67.34;99395.70;1762507;79;21007;-88
2021/06/30 08:09:53;;;;;;;8.05;5.83;;;;;;;26.05;66.39;99396.67;1774521;78;21104;-89
2021/06/30 08:12:19;;;;;;;10.13;6.45;;;;;;;25.94;65.56;99395.08;1822934;78;21780;-89
2021/06/30 08:14:45;;;;;;;9.25;6.25;;;;;;;25.98;65.79;99388.06;1822547;76;20933;-89
2021/06/30 08:17:11;;;;;;;8.83;5.90;;;;;;;26.19;65.45;99387.97;1812167;76;20954;-88
2021/06/30 08:19:36;;;;;;;9.18;6.20;;;;;;;26.32;64.54;99386.01;1785398;76;20919;-86
2021/06/30 08:22:02;;;;;;;8.93;5.92;;;;;;;26.33;64.13;99386.25;1766352;79;20973;-87
2021/06/30 08:24:28;;;;;;;7.85;5.62;;;;;;;26.38;63.65;99384.06;1764040;78;21109;-87
2021/06/30 08:26:55;;;;;;;8.00;5.30;;;;;;;26.49;63.44;99390.50;1768248;79;21148;-86
2021/06/30 08:29:23;;;;;;;7.78;5.30;;;;;;;26.53;62.86;99387.23;1752986;79;21630;-85
2021/06/30 08:31:49;;;;;;;8.05;5.15;;;;;;;26.75;62.81;99388.98;1782372;80;21268;-87
2021/06/30 08:34:15;;;;;;;8.38;5.10;;;;;;;26.95;61.19;99388.58;1756511;79;21268;-87
2021/06/30 08:36:40;;;;;;;7.97;4.90;;;;;;;27.13;60.81;99391.94;1766891;79;21133;-88
2021/06/30 08:39:08;;;;;;;6.05;4.65;;;;;;;27.28;60.55;99383.39;1742262;79;28000;-86
2021/06/30 08:41:34;;;;;;;10.08;5.25;;;;;;;27.36;59.41;99381.44;1735777;80;21100;-86
2021/06/30 08:44:00;;;;;;;8.48;4.72;;;;;;;27.25;59.56;99383.97;1727061;80;21879;-86
2021/06/30 08:46:26;;;;;;;8.85;4.83;;;;;;;27.62;58.83;99375.75;1753893;78;20894;-87
2021/06/30 08:48:52;;;;;;;7.67;4.75;;;;;;;27.56;58.19;99369.04;1747285;79;21164;-89
2021/06/30 08:51:23;;;;;;;7.62;4.67;;;;;;;27.71;57.70;99388.94;1735049;81;20884;-86
2021/06/30 08:53:49;;;;;;;7.75;4.28;;;;;;;27.90;57.51;99376.21;1758331;81;20976;-87
2021/06/30 08:56:16;;;;;;;6.57;4.30;;;;;;;28.15;55.90;99390.59;1766651;80;20955;-86
2021/06/30 08:58:42;;;;;;;11.93;4.40;;;;;;;28.34;55.15;99391.98;1775400;79;21158;-85
2021/06/30 09:01:08;;;;;;;7.03;4.05;;;;;;;28.42;53.99;99387.80;1759680;79;21657;-90
2021/06/30 09:03:34;;;;;;;7.53;3.95;;;;;;;28.63;53.98;99395.11;1765639;78;20926;-89
2021/06/30 09:06:11;;;;;;;7.20;4.50;;;;;;;28.78;53.87;99396.80;1756251;79;21072;-86
2021/06/30 09:08:45;;;;;;;6.42;3.92;;;;;;;28.77;52.82;99397.89;1804888;78;20978;-83
2021/06/30 09:11:19;;;;;;;6.05;3.92;;;;;;;28.94;52.94;99397.34;1802170;78;21019;-86
2021/06/30 09:13:44;;;;;;;5.97;4.12;;;;;;;29.10;52.91;99389.73;1801281;77;21131;-85
2021/06/30 09:16:10;;;;;;;5.30;3.72;;;;;;;29.15;52.38;99389.66;1822206;77;20883;-86
2021/06/30 09:18:37;;;;;;;6.05;4.35;;;;;;;29.27;52.69;99392.74;1792705;78;20910;-86
2021/06/30 09:21:26;;;;;;;7.97;4.33;;;;;;;29.58;52.53;99385.91;1796285;78;21133;-86
2021/06/30 09:24:12;;;;;;;6.67;4.25;;;;;;;29.84;52.38;99388.40;1790676;78;21061;-86
2021/06/30 09:26:37;;;;;;;7.60;4.25;;;;;;;29.87;51.97;99388.36;1764951;77;21008;-88
2021/06/30 09:29:07;;;;;;;7.30;4.50;;;;;;;29.99;52.23;99389.22;1759875;79;21043;-87
2021/06/30 09:31:34;;;;;;;8.03;4.60;;;;;;;30.26;51.94;99392.42;1761733;79;21519;-87
2021/06/30 09:34:00;;;;;;;9.68;4.37;;;;;;;30.40;51.11;99381.52;1750843;79;21017;-87
2021/06/30 09:36:32;;;;;;;5.83;4.17;;;;;;;30.53;51.02;99385.31;1756174;79;21321;-87
2021/06/30 09:39:09;;;;;;;8.58;4.85;;;;;;;30.64;50.89;99385.88;1750719;79;21091;-87
2021/06/30 09:41:35;;;;;;;7.10;4.60;;;;;;;30.63;50.32;99387.80;1747442;79;21112;-86
2021/06/30 09:44:12;;;;;;;6.27;4.13;;;;;;;30.65;50.08;99387.50;1752400;79;21000;-86
2021/06/30 12:47:14;;;;;;;10.68;7.90;;;;;;;32.72;44.05;99324.11;1668259;83;20992;-86
2021/06/30 12:49:40;;;;;;;12.37;8.03;;;;;;;32.47;45.18;99321.06;1627297;85;21101;-86
2021/06/30 12:52:21;;;;;;;10.75;8.08;;;;;;;32.34;45.91;99323.42;1651561;84;21818;-87
2021/06/30 12:55:12;;;;;;;13.60;8.60;;;;;;;32.37;45.67;99318.67;1631096;86;21206;-87
2021/06/30 12:58:03;;;;;;;11.25;8.15;;;;;;;32.10;46.92;99321.98;1652138;86;21172;-86
2021/06/30 13:00:33;;;;;;;10.88;8.48;;;;;;;31.55;49.07;99323.86;1651741;85;21094;-87
2021/06/30 13:03:17;;;;;;;14.23;8.83;;;;;;;31.61;49.34;99317.13;1651683;85;21098;-87
2021/06/30 13:05:48;;;;;;;10.43;7.20;;;;;;;31.75;48.49;99312.34;1652277;85;21094;-86
2021/06/30 13:08:32;;;;;;;13.45;8.70;;;;;;;31.88;47.52;99327.54;1647001;85;21070;-86
2021/06/30 13:11:22;;;;;;;11.68;8.08;;;;;;;31.49;48.07;99313.07;1678575;84;21297;-86
2021/06/30 13:14:12;;;;;;;13.70;8.58;;;;;;;31.59;47.25;99317.45;1658688;83;21173;-86
2021/06/30 13:16:54;;;;;;;11.68;7.80;;;;;;;31.56;46.93;99315.36;1650446;85;21751;-87
2021/06/30 13:19:31;;;;;;;10.93;7.90;;;;;;;31.93;46.61;99305.53;1652127;84;21035;-87
2021/06/30 13:22:00;;;;;;;14.73;8.35;;;;;;;32.43;46.26;99302.36;1677311;84;21157;-87
2021/06/30 13:24:43;;;;;;;12.05;7.90;;;;;;;32.25;46.02;99307.02;1690635;84;21294;-87
2021/06/30 13:35:24;;;;;;;10.88;7.53;;;;;;;32.85;43.68;99286.78;1644805;84;21124;-86
2021/06/30 13:38:17;;;;;;;12.40;7.58;;;;;;;32.65;44.22;99296.48;1657148;85;21154;-88
2021/06/30 13:40:47;;;;;;;10.03;7.45;;;;;;;32.74;44.43;99300.00;1645684;86;21103;-85
2021/06/30 13:43:16;;;;;;;10.48;6.95;;;;;;;32.19;45.45;99299.56;1653014;85;21102;-86
2021/06/30 13:45:51;;;;;;;9.18;6.70;;;;;;;32.01;45.87;99295.20;1651485;85;21070;-87
2021/06/30 13:48:18;;;;;;;9.07;6.27;;;;;;;32.01;46.39;99296.56;1655032;86;21090;-87
2021/06/30 13:50:49;;;;;;;11.20;6.58;;;;;;;31.91;46.58;99294.13;1650335;85;21572;-87
2021/06/30 13:53:16;;;;;;;11.50;6.47;;;;;;;31.71;47.28;99303.17;1643232;86;20992;-86
2021/06/30 13:55:42;;;;;;;9.25;6.33;;;;;;;31.91;46.42;99300.95;1641834;85;21091;-86
2021/06/30 13:58:08;;;;;;;11.05;6.50;;;;;;;31.55;47.52;99303.39;1644825;85;21070;-87
2021/06/30 14:00:34;;;;;;;9.47;6.23;;;;;;;31.71;46.89;99299.07;1631467;83;20922;-87
2021/06/30 14:03:00;;;;;;;11.37;6.00;;;;;;;32.16;45.81;99295.29;1654853;83;21220;-87
2021/06/30 14:05:29;;;;;;;8.70;5.40;;;;;;;32.30;45.54;99292.39;1632723;86;20904;-88
2021/06/30 14:07:53;;;;;;;8.33;5.30;;;;;;;32.67;45.38;99298.32;1652722;84;21004;-87
2021/06/30 14:10:19;;;;;;;9.60;5.07;;;;;;;32.97;44.33;99286.91;1655363;85;20896;-87
2021/06/30 14:12:45;;;;;;;9.70;5.10;;;;;;;33.16;43.10;99282.39;1652112;85;21146;-86
2021/06/30 14:15:12;;;;;;;8.80;5.30;;;;;;;33.31;42.54;99276.15;1644943;85;21153;-87
2021/06/30 14:17:38;;;;;;;7.97;4.75;;;;;;;33.67;41.52;99283.84;1651099;85;21421;-87
2021/06/30 14:20:05;;;;;;;6.10;4.40;;;;;;;33.76;40.43;99297.48;1649689;85;21557;-88
2021/06/30 14:22:32;;;;;;;5.90;4.22;;;;;;;33.51;40.05;99294.55;1651654;85;21688;-88
2021/06/30 14:24:58;;;;;;;7.17;4.00;;;;;;;33.42;40.36;99285.58;1647558;85;21596;-88
2021/06/30 14:27:24;;;;;;;5.50;3.80;;;;;;;33.69;39.58;99279.40;1646375;85;21078;-88
2021/06/30 14:29:59;;;;;;;7.08;3.80;;;;;;;33.50;39.60;99277.91;1652917;86;21070;-86
2021/06/30 14:32:26;;;;;;;6.70;4.10;;;;;;;33.73;39.33;99286.64;1651647;86;21619;-87
2021/06/30 14:34:52;;;;;;;;;;;;;;;33.63;39.17;99269.20;1654509;86;21034;-87
2021/06/30 14:37:18;;;;;;;7.42;3.40;;;;;;;33.69;39.13;99285.67;1651587;86;20877;-87
2021/06/30 14:39:44;;;;;;;5.50;3.52;;;;;;;33.77;39.36;99272.50;1651489;86;21054;-86